Time;durP1;ratioP1;P1;durP2;ratioP2;P2;SDS_P1;SDS_P2;PMS_P1;PMS_P2;Temp;Humidity;BMP_temperature;BMP_pressure;BME280_temperature;BME280_humidity;BME280_pressure;Samples;Min_cycle;Max_cycle;Signal;HPM_P1;HPM_P2
2023/03/09 00:01:51;;;;;;;11.38;7.47;;;11.20;99.90;;;;;;5074313;28;20181;-87
2023/03/09 00:04:17;;;;;;;8.98;7.05;;;11.20;99.90;;;;;;5073337;28;20215;-87
2023/03/09 00:06:43;;;;;;;11.13;7.20;;;11.20;99.90;;;;;;5074337;28;20597;-89
2023/03/09 00:09:10;;;;;;;8.50;5.25;;;11.30;99.90;;;;;;5074177;28;20388;-85
2023/03/09 00:11:40;;;;;;;9.18;7.40;;;11.20;99.90;;;;;;5073490;28;20188;-87
2023/03/09 00:14:05;;;;;;;8.45;7.55;;;11.20;99.90;;;;;;5074164;28;20247;-86
2023/03/09 00:16:31;;;;;;;9.10;8.17;;;11.20;99.90;;;;;;5075366;28;20622;-85
2023/03/09 00:18:57;;;;;;;11.47;7.93;;;11.20;99.90;;;;;;5073979;28;20204;-85
2023/03/09 00:21:34;;;;;;;10.35;6.97;;;11.20;99.90;;;;;;5074206;28;20176;-86
2023/03/09 00:24:07;;;;;;;10.15;7.53;;;11.20;99.90;;;;;;5073902;28;20307;-86
2023/03/09 00:26:36;;;;;;;10.50;7.30;;;11.20;99.90;;;;;;5072593;28;20221;-86
2023/03/09 00:29:04;;;;;;;8.40;6.88;;;11.20;99.90;;;;;;5072590;28;20177;-87
2023/03/09 00:31:30;;;;;;;10.68;7.00;;;11.20;99.90;;;;;;5071974;28;20217;-87
2023/03/09 00:33:55;;;;;;;9.50;7.55;;;11.20;99.90;;;;;;5072321;28;20201;-86
2023/03/09 00:36:21;;;;;;;9.03;7.00;;;11.20;99.90;;;;;;5072480;28;20185;-85
2023/03/09 00:38:52;;;;;;;9.80;7.97;;;11.20;99.90;;;;;;5073620;28;21010;-87
2023/03/09 00:41:19;;;;;;;9.82;7.63;;;11.20;99.90;;;;;;5073994;28;20176;-86
2023/03/09 00:43:45;;;;;;;10.80;6.07;;;11.20;99.90;;;;;;5073589;28;20287;-87
2023/03/09 00:46:11;;;;;;;8.90;7.63;;;11.20;99.90;;;;;;5073738;28;20292;-86
2023/03/09 00:48:38;;;;;;;8.60;7.68;;;11.20;99.90;;;;;;5073562;28;20189;-86
2023/03/09 00:51:04;;;;;;;9.57;7.95;;;11.20;99.90;;;;;;5072425;28;20181;-86
2023/03/09 00:53:30;;;;;;;9.20;7.40;;;11.10;99.90;;;;;;5072209;28;20674;-87
2023/03/09 00:55:56;;;;;;;9.10;7.33;;;11.10;99.90;;;;;;5073866;28;20176;-86
2023/03/09 00:58:21;;;;;;;8.70;7.80;;;11.20;99.90;;;;;;5073085;28;20205;-85
2023/03/09 01:00:47;;;;;;;9.23;7.20;;;11.20;99.90;;;;;;5073343;28;20173;-86
2023/03/09 01:03:12;;;;;;;8.03;6.70;;;11.10;99.90;;;;;;5073854;28;20193;-87
2023/03/09 01:05:38;;;;;;;9.27;7.43;;;11.10;99.90;;;;;;5073470;28;20205;-85
2023/03/09 01:08:04;;;;;;;8.47;6.60;;;11.00;99.90;;;;;;5073948;28;20204;-87
2023/03/09 01:10:30;;;;;;;9.27;7.43;;;11.10;99.90;;;;;;5073434;28;20177;-86
2023/03/09 01:12:56;;;;;;;12.13;6.93;;;11.00;99.90;;;;;;5073115;28;20442;-84
2023/03/09 01:15:21;;;;;;;8.70;6.90;;;11.00;99.90;;;;;;5072315;28;20189;-84
2023/03/09 01:17:47;;;;;;;7.07;6.20;;;11.00;99.90;;;;;;5072288;28;20292;-86
2023/03/09 01:20:13;;;;;;;12.07;7.10;;;11.00;99.90;;;;;;5073464;28;20480;-84
2023/03/09 01:22:39;;;;;;;10.73;6.57;;;11.00;99.90;;;;;;5072072;28;20201;-86
2023/03/09 01:25:06;;;;;;;11.13;8.03;;;11.00;99.90;;;;;;5072069;28;20545;-84
2023/03/09 01:27:32;;;;;;;8.70;6.70;;;11.00;99.90;;;;;;5072106;28;20201;-86
2023/03/09 01:29:57;;;;;;;9.00;6.80;;;11.10;99.90;;;;;;5073343;28;20672;-85
2023/03/09 01:32:25;;;;;;;11.50;7.60;;;11.10;99.90;;;;;;5072091;28;20437;-87
2023/03/09 01:34:52;;;;;;;8.23;6.40;;;11.10;99.90;;;;;;5071908;28;20184;-86
2023/03/09 01:37:18;;;;;;;8.60;6.88;;;11.00;99.90;;;;;;5073635;28;20661;-86
2023/03/09 01:39:44;;;;;;;7.85;6.15;;;11.00;99.90;;;;;;5073460;28;20579;-85
2023/03/09 01:42:10;;;;;;;8.13;6.00;;;11.00;99.90;;;;;;5072152;28;20224;-86
2023/03/09 01:44:36;;;;;;;8.65;6.80;;;11.00;99.90;;;;;;5077028;28;20223;-86
2023/03/09 01:47:02;;;;;;;8.25;6.82;;;11.10;99.90;;;;;;5075756;28;20227;-87
2023/03/09 01:49:39;;;;;;;8.70;6.10;;;11.10;99.90;;;;;;5076771;28;20646;-85
2023/03/09 01:52:41;;;;;;;8.50;6.93;;;11.00;99.90;;;;;;5077066;28;20565;-86
2023/03/09 01:55:28;;;;;;;8.75;6.20;;;11.10;99.90;;;;;;5066603;28;20181;-86
2023/03/09 01:57:54;;;;;;;12.15;7.25;;;11.00;99.90;;;;;;5076849;28;20189;-86
2023/03/09 02:00:24;;;;;;;8.53;5.07;;;11.00;99.90;;;;;;5075378;28;20177;-86
2023/03/09 02:02:57;;;;;;;8.10;6.05;;;11.00;99.90;;;;;;5075380;28;20212;-86
2023/03/09 02:05:31;;;;;;;8.35;5.53;;;11.00;99.90;;;;;;5075216;28;20269;-86
2023/03/09 02:07:59;;;;;;;9.77;5.82;;;11.00;99.90;;;;;;5075446;28;20330;-86
2023/03/09 02:10:32;;;;;;;5.75;5.10;;;11.10;99.90;;;;;;5076373;28;20210;-88
2023/03/09 02:13:08;;;;;;;9.13;6.40;;;11.10;99.90;;;;;;5076244;28;20568;-86
2023/03/09 02:15:34;;;;;;;8.50;5.10;;;11.10;99.90;;;;;;5075064;28;20173;-87
2023/03/09 02:18:00;;;;;;;10.68;6.40;;;11.10;99.90;;;;;;5077004;28;20556;-87
2023/03/09 02:20:49;;;;;;;7.50;6.00;;;11.20;99.90;;;;;;5075494;28;20326;-85
2023/03/09 02:23:37;;;;;;;10.93;5.90;;;11.20;99.90;;;;;;5075151;28;20201;-84
2023/03/09 02:26:18;;;;;;;8.70;6.10;;;11.20;99.90;;;;;;5076465;28;20665;-87
2023/03/09 02:28:44;;;;;;;6.40;4.72;;;11.20;99.90;;;;;;5074685;28;20257;-86
2023/03/09 02:31:13;;;;;;;9.67;7.27;;;11.10;99.90;;;;;;5075073;28;20177;-86
2023/03/09 02:33:40;;;;;;;9.10;6.95;;;11.00;99.90;;;;;;5075590;28;20253;-87
2023/03/09 02:36:06;;;;;;;9.13;6.40;;;10.90;99.90;;;;;;5077634;28;20169;-86
2023/03/09 02:38:32;;;;;;;8.38;6.32;;;10.90;99.90;;;;;;5076206;28;20205;-86
2023/03/09 02:41:00;;;;;;;7.55;6.47;;;10.80;99.90;;;;;;5076359;28;20173;-88
2023/03/09 02:43:49;;;;;;;11.27;7.50;;;10.80;99.90;;;;;;5074859;28;20629;-86
2023/03/09 02:46:15;;;;;;;12.40;6.55;;;10.80;99.90;;;;;;5074545;28;20216;-87
2023/03/09 02:48:41;;;;;;;8.40;5.90;;;10.80;99.90;;;;;;5074394;28;20209;-86
2023/03/09 02:51:07;;;;;;;8.33;6.03;;;10.70;99.90;;;;;;5075664;28;20169;-86
2023/03/09 02:53:34;;;;;;;8.47;6.70;;;10.70;99.90;;;;;;5074249;28;20197;-87
2023/03/09 02:55:59;;;;;;;6.05;5.25;;;10.60;99.90;;;;;;5073315;28;20452;-86
2023/03/09 02:58:25;;;;;;;10.87;6.77;;;10.60;99.90;;;;;;5075492;28;20608;-86
2023/03/09 03:00:51;;;;;;;10.67;7.27;;;10.40;99.90;;;;;;5074088;28;20406;-86
2023/03/09 03:03:19;;;;;;;9.20;6.87;;;10.40;99.90;;;;;;5074051;28;20533;-85
2023/03/09 03:05:46;;;;;;;11.68;7.40;;;10.30;99.90;;;;;;5075063;28;20205;-86
2023/03/09 03:08:12;;;;;;;8.88;6.32;;;10.30;99.90;;;;;;5075174;28;20305;-86
2023/03/09 03:10:37;;;;;;;7.40;6.60;;;10.20;99.90;;;;;;5073984;28;20177;-85
2023/03/09 03:13:03;;;;;;;10.97;7.00;;;10.20;99.90;;;;;;5073835;28;20243;-87
2023/03/09 03:15:29;;;;;;;9.23;6.43;;;10.10;99.90;;;;;;5075070;28;20173;-84
2023/03/09 03:17:54;;;;;;;8.93;6.60;;;10.20;99.90;;;;;;5075395;28;20197;-84
2023/03/09 03:20:20;;;;;;;8.23;6.67;;;10.20;99.90;;;;;;5075120;28;20173;-84
2023/03/09 03:22:46;;;;;;;8.97;7.17;;;10.20;99.90;;;;;;5073842;28;20196;-86
2023/03/09 03:25:12;;;;;;;10.70;7.80;;;10.20;99.90;;;;;;5075042;28;20516;-85
2023/03/09 03:27:38;;;;;;;9.45;4.60;;;10.10;99.90;;;;;;5073736;28;20203;-86
2023/03/09 03:30:04;;;;;;;10.03;6.97;;;10.10;99.90;;;;;;5073819;28;20633;-84
2023/03/09 03:32:30;;;;;;;8.57;6.55;;;10.00;99.90;;;;;;5075250;28;20193;-86
2023/03/09 03:34:56;;;;;;;9.47;6.60;;;10.00;99.90;;;;;;5074244;28;20207;-85
2023/03/09 03:37:22;;;;;;;10.15;6.57;;;10.10;99.90;;;;;;5075085;28;20254;-86
2023/03/09 03:39:48;;;;;;;7.70;6.23;;;10.10;99.90;;;;;;5073561;28;20185;-85
2023/03/09 03:42:14;;;;;;;8.73;6.30;;;10.20;99.90;;;;;;5073521;28;20193;-86
2023/03/09 03:44:39;;;;;;;8.40;6.00;;;10.20;99.90;;;;;;5073339;28;20667;-85
2023/03/09 03:47:05;;;;;;;7.90;7.10;;;10.20;99.90;;;;;;5073097;28;21059;-87
2023/03/09 03:49:31;;;;;;;8.53;5.87;;;10.30;99.90;;;;;;5074478;28;20252;-85
2023/03/09 03:51:57;;;;;;;8.67;7.00;;;10.30;99.90;;;;;;5073243;28;20438;-86
2023/03/09 03:54:22;;;;;;;8.17;6.70;;;10.40;99.90;;;;;;5073247;28;20181;-84
2023/03/09 03:56:48;;;;;;;9.23;6.73;;;10.40;99.90;;;;;;5074222;28;20184;-86
2023/03/09 03:59:14;;;;;;;8.50;6.40;;;10.50;99.90;;;;;;5073210;28;20258;-85
2023/03/09 04:01:40;;;;;;;8.10;6.60;;;10.60;99.90;;;;;;5072840;28;20177;-86
2023/03/09 04:04:06;;;;;;;7.67;5.43;;;10.60;99.90;;;;;;5073043;28;20503;-86
2023/03/09 04:06:32;;;;;;;8.90;6.43;;;10.70;99.90;;;;;;5073919;28;20579;-86
2023/03/09 04:08:58;;;;;;;9.55;6.10;;;10.70;99.90;;;;;;5072930;28;20196;-84
2023/03/09 04:11:28;;;;;;;8.43;6.45;;;10.80;99.90;;;;;;5074477;28;20626;-86
2023/03/09 04:13:54;;;;;;;7.88;5.60;;;10.80;99.90;;;;;;5073981;28;20326;-86
2023/03/09 04:16:20;;;;;;;9.70;6.00;;;10.90;99.90;;;;;;5072841;28;20532;-86
2023/03/09 04:18:45;;;;;;;7.43;6.73;;;10.90;99.90;;;;;;5072685;28;20205;-86
2023/03/09 04:21:11;;;;;;;5.53;4.53;;;11.00;99.90;;;;;;5073977;28;20197;-87
2023/03/09 04:23:36;;;;;;;8.00;6.27;;;11.10;99.90;;;;;;5073923;28;20250;-85
2023/03/09 04:26:04;;;;;;;8.50;6.03;;;11.00;99.90;;;;;;5073968;28;20219;-85
2023/03/09 04:28:30;;;;;;;9.02;5.90;;;11.00;99.90;;;;;;5073932;28;20632;-86
2023/03/09 04:30:56;;;;;;;11.37;6.10;;;11.00;99.90;;;;;;5072608;28;20264;-86
2023/03/09 04:33:22;;;;;;;7.53;5.83;;;11.00;99.90;;;;;;5073865;28;20197;-85
2023/03/09 04:35:48;;;;;;;7.47;5.90;;;11.00;99.90;;;;;;5073716;28;20569;-86
2023/03/09 04:38:14;;;;;;;6.50;5.30;;;10.90;99.90;;;;;;5073748;28;20196;-86
2023/03/09 04:40:40;;;;;;;9.90;5.95;;;11.00;99.90;;;;;;5072379;28;20414;-84
2023/03/09 04:43:07;;;;;;;7.37;5.80;;;10.90;99.90;;;;;;5072406;28;20686;-87
2023/03/09 04:45:32;;;;;;;7.65;5.00;;;10.90;99.90;;;;;;5072150;28;21034;-86
2023/03/09 04:47:59;;;;;;;8.10;6.13;;;10.80;99.90;;;;;;5072410;28;20232;-86
2023/03/09 04:50:25;;;;;;;6.97;6.05;;;10.70;99.90;;;;;;5073608;28;20231;-85
2023/03/09 04:52:51;;;;;;;10.55;5.97;;;10.70;99.90;;;;;;5072473;28;20193;-86
2023/03/09 04:55:17;;;;;;;7.70;5.30;;;10.70;99.90;;;;;;5072055;28;20638;-85
2023/03/09 04:57:43;;;;;;;7.07;5.75;;;10.70;99.90;;;;;;5073869;28;20224;-87
2023/03/09 05:00:11;;;;;;;5.10;3.60;;;10.70;99.90;;;;;;5072283;28;20176;-85
2023/03/09 05:02:40;;;;;;;7.72;6.18;;;10.70;99.90;;;;;;5072310;28;20292;-85
2023/03/09 05:05:08;;;;;;;7.18;5.15;;;10.60;99.90;;;;;;5072122;28;20214;-85
2023/03/09 05:07:34;;;;;;;8.85;6.00;;;10.70;99.90;;;;;;5073585;28;20205;-86
2023/03/09 05:10:00;;;;;;;8.85;6.20;;;10.60;99.90;;;;;;5072137;28;20184;-85
2023/03/09 05:12:31;;;;;;;6.63;5.67;;;10.60;99.90;;;;;;5073711;28;20201;-85
2023/03/09 05:14:58;;;;;;;8.88;5.97;;;10.60;99.90;;;;;;5073709;28;20196;-85
2023/03/09 05:17:24;;;;;;;9.05;6.10;;;10.60;99.90;;;;;;5072267;28;20201;-86
2023/03/09 05:19:49;;;;;;;6.88;5.40;;;10.70;99.90;;;;;;5075625;28;20208;-85
2023/03/09 05:22:17;;;;;;;131.70;63.67;;;10.70;99.90;;;;;;5075908;28;20727;-85
2023/03/09 05:24:43;;;;;;;6.38;5.65;;;10.60;99.90;;;;;;5075934;28;20181;-84
2023/03/09 05:27:09;;;;;;;8.40;5.93;;;10.60;99.90;;;;;;5075754;28;20227;-85
2023/03/09 05:29:35;;;;;;;6.07;4.30;;;10.60;99.90;;;;;;5077002;28;20252;-84
2023/03/09 05:32:00;;;;;;;7.60;6.17;;;10.50;99.90;;;;;;5075332;28;20433;-85
2023/03/09 05:34:26;;;;;;;5.50;4.57;;;10.50;99.90;;;;;;5075014;28;20764;-83
2023/03/09 05:36:52;;;;;;;7.37;6.20;;;10.40;99.90;;;;;;5073509;28;20452;-85
2023/03/09 05:39:20;;;;;;;7.43;5.30;;;10.40;99.90;;;;;;5073476;28;20579;-83
2023/03/09 05:41:46;;;;;;;10.85;6.45;;;10.40;99.90;;;;;;5092664;28;20176;-84
2023/03/09 05:44:12;;;;;;;8.70;5.83;;;10.40;99.90;;;;;;5075799;28;20200;-84
2023/03/09 05:46:38;;;;;;;8.20;5.17;;;10.50;99.90;;;;;;5074077;28;20705;-84
2023/03/09 05:49:04;;;;;;;7.53;5.27;;;10.60;99.90;;;;;;5075479;28;20181;-84
2023/03/09 05:51:30;;;;;;;7.35;6.25;;;10.60;99.90;;;;;;5075436;28;20775;-84
2023/03/09 05:53:55;;;;;;;7.07;5.77;;;10.70;99.90;;;;;;5076657;28;20193;-84
2023/03/09 05:56:21;;;;;;;6.83;5.30;;;10.70;99.90;;;;;;5088758;28;20184;-83
2023/03/09 05:58:50;;;;;;;8.73;5.90;;;10.80;99.90;;;;;;5093549;28;20224;-84
2023/03/09 06:01:25;;;;;;;8.80;6.10;;;10.80;99.90;;;;;;5082022;28;20234;-84
2023/03/09 06:03:51;;;;;;;7.85;5.80;;;10.90;99.90;;;;;;5079651;28;20689;-85
2023/03/09 06:06:17;;;;;;;7.72;6.00;;;11.00;99.90;;;;;;5075105;28;20220;-84
2023/03/09 06:08:43;;;;;;;7.00;5.05;;;11.00;99.90;;;;;;5082679;28;20274;-85
2023/03/09 06:11:09;;;;;;;6.67;5.30;;;11.10;99.90;;;;;;5093993;28;20637;-84
2023/03/09 06:13:38;;;;;;;6.00;4.75;;;11.20;99.90;;;;;;5086600;28;20232;-84
2023/03/09 06:16:05;;;;;;;5.63;4.25;;;11.30;99.90;;;;;;5094279;28;20172;-85
2023/03/09 06:18:32;;;;;;;6.65;5.95;;;11.40;99.90;;;;;;5088205;28;20704;-85
2023/03/09 06:21:02;;;;;;;8.10;5.78;;;11.50;99.90;;;;;;5083713;28;20169;-85
2023/03/09 06:23:28;;;;;;;6.85;5.15;;;11.70;99.90;;;;;;5081084;28;20205;-84
2023/03/09 06:25:54;;;;;;;5.78;5.18;;;11.70;99.90;;;;;;5090152;28;20673;-85
2023/03/09 06:28:20;;;;;;;6.57;5.37;;;11.80;99.90;;;;;;5092651;28;20201;-85
2023/03/09 06:30:46;;;;;;;6.30;5.40;;;12.00;99.90;;;;;;5081133;28;20804;-85
2023/03/09 06:33:11;;;;;;;8.40;4.87;;;12.10;99.90;;;;;;5092313;28;20238;-85
2023/03/09 06:35:37;;;;;;;6.60;5.20;;;12.30;99.90;;;;;;5088674;28;20544;-84
2023/03/09 06:38:03;;;;;;;7.93;5.37;;;12.40;99.90;;;;;;5092924;28;20207;-85
2023/03/09 06:40:29;;;;;;;5.70;3.57;;;12.50;99.90;;;;;;5093066;28;20677;-84
2023/03/09 06:42:55;;;;;;;8.67;5.57;;;12.50;99.90;;;;;;5092040;28;20200;-84
2023/03/09 06:45:21;;;;;;;8.27;5.87;;;12.60;99.90;;;;;;5090934;28;20984;-85
2023/03/09 06:47:47;;;;;;;11.27;8.30;;;12.70;99.90;;;;;;5091490;28;20424;-84
2023/03/09 06:50:13;;;;;;;7.60;5.60;;;12.60;99.90;;;;;;5078450;28;20220;-84
2023/03/09 06:52:40;;;;;;;6.40;4.90;;;12.70;99.90;;;;;;5079839;28;20474;-85
2023/03/09 06:55:06;;;;;;;5.70;5.10;;;12.70;99.90;;;;;;5086440;28;20482;-86
2023/03/09 06:57:32;;;;;;;7.10;5.37;;;12.70;99.90;;;;;;5078807;28;20463;-85
2023/03/09 06:59:58;;;;;;;7.50;5.63;;;12.80;99.90;;;;;;5081629;28;20430;-85
2023/03/09 07:02:23;;;;;;;8.00;6.07;;;12.80;99.90;;;;;;5077056;28;20295;-86
2023/03/09 07:04:49;;;;;;;6.37;5.00;;;13.00;99.90;;;;;;5074756;28;20195;-84
2023/03/09 07:07:18;;;;;;;5.30;4.60;;;13.00;99.90;;;;;;5083984;28;20742;-86
2023/03/09 07:09:44;;;;;;;5.70;4.60;;;13.10;99.90;;;;;;5092131;28;20184;-85
2023/03/09 07:12:09;;;;;;;9.93;6.40;;;13.10;99.90;;;;;;5091066;28;20822;-86
2023/03/09 07:14:35;;;;;;;6.67;5.97;;;13.20;99.90;;;;;;5091634;28;20625;-86
2023/03/09 07:17:00;;;;;;;7.27;5.03;;;13.30;99.90;;;;;;5093858;28;20751;-86
2023/03/09 07:19:26;;;;;;;7.27;4.93;;;13.40;99.90;;;;;;5093188;28;20233;-85
2023/03/09 07:21:54;;;;;;;8.40;5.17;;;13.60;99.90;;;;;;5084933;28;20185;-86
2023/03/09 07:24:21;;;;;;;5.73;4.33;;;13.70;99.90;;;;;;5071791;28;20211;-86
2023/03/09 07:26:48;;;;;;;6.10;4.23;;;13.80;99.90;;;;;;5092081;28;20480;-87
2023/03/09 07:29:14;;;;;;;6.17;3.70;;;13.90;99.90;;;;;;5091323;28;20408;-85
2023/03/09 07:31:40;;;;;;;8.83;4.70;;;13.90;99.90;;;;;;5084693;28;20480;-86
2023/03/09 07:34:05;;;;;;;4.50;3.67;;;14.00;99.90;;;;;;5089217;28;20976;-86
2023/03/09 07:36:31;;;;;;;4.87;4.37;;;14.00;99.90;;;;;;5084773;28;20421;-86
2023/03/09 07:38:57;;;;;;;5.23;4.13;;;14.00;99.90;;;;;;5085487;28;20237;-85
2023/03/09 07:41:22;;;;;;;4.83;4.30;;;14.10;99.90;;;;;;5092033;28;20184;-86
2023/03/09 07:43:48;;;;;;;4.53;4.10;;;14.10;99.90;;;;;;5074780;28;20209;-86
2023/03/09 07:46:15;;;;;;;5.50;3.97;;;14.20;99.90;;;;;;5072153;28;20701;-86
2023/03/09 07:48:42;;;;;;;4.37;3.97;;;14.40;99.90;;;;;;5070766;28;20211;-86
2023/03/09 07:51:09;;;;;;;4.53;4.13;;;14.30;99.90;;;;;;5070851;28;20558;-87
2023/03/09 07:53:36;;;;;;;6.00;4.23;;;14.40;99.90;;;;;;5085840;28;20433;-84
2023/03/09 07:56:04;;;;;;;7.57;3.73;;;14.40;99.90;;;;;;5079056;28;20433;-85
2023/03/09 07:58:31;;;;;;;5.87;4.07;;;14.40;99.90;;;;;;5079842;28;20548;-88
2023/03/09 08:00:57;;;;;;;4.53;3.83;;;14.40;99.90;;;;;;5081722;28;20422;-86
2023/03/09 08:03:24;;;;;;;4.73;4.10;;;14.50;99.90;;;;;;5082865;28;20523;-86
2023/03/09 08:05:54;;;;;;;6.77;4.20;;;14.50;99.90;;;;;;5083130;28;20477;-86
2023/03/09 08:08:20;;;;;;;6.27;4.00;;;14.60;99.90;;;;;;5088786;28;20547;-86
2023/03/09 08:10:47;;;;;;;4.70;4.17;;;14.60;99.90;;;;;;5075943;28;20801;-86
2023/03/09 08:13:13;;;;;;;7.97;4.40;;;14.70;99.90;;;;;;5059449;28;21288;-88
2023/03/09 08:15:39;;;;;;;5.37;4.37;;;14.70;99.90;;;;;;5059884;28;20445;-85
2023/03/09 08:18:05;;;;;;;7.60;5.90;;;14.60;99.90;;;;;;5057124;28;20222;-86
2023/03/09 08:20:32;;;;;;;8.20;6.10;;;14.70;99.90;;;;;;5060414;28;20798;-85
2023/03/09 08:22:57;;;;;;;6.87;5.00;;;14.70;99.90;;;;;;5107767;27;20446;-85
2023/03/09 08:25:23;;;;;;;7.30;6.00;;;14.90;99.90;;;;;;5079270;28;20979;-85
2023/03/09 08:27:49;;;;;;;7.80;5.13;;;14.80;99.90;;;;;;5081910;28;20239;-87
2023/03/09 08:30:18;;;;;;;5.80;5.20;;;14.80;99.90;;;;;;5091344;28;20594;-85
2023/03/09 08:32:47;;;;;;;5.03;4.07;;;14.80;99.90;;;;;;5091999;28;20208;-86
2023/03/09 08:35:16;;;;;;;4.30;3.70;;;14.80;99.90;;;;;;5075533;28;20849;-87
2023/03/09 08:37:42;;;;;;;6.40;4.40;;;14.80;99.90;;;;;;5076227;28;20479;-86
2023/03/09 08:40:09;;;;;;;4.73;4.23;;;14.90;99.90;;;;;;5089887;28;20945;-85
2023/03/09 08:42:35;;;;;;;6.67;4.10;;;15.00;99.90;;;;;;5089739;28;20265;-85
2023/03/09 08:45:07;;;;;;;4.77;4.27;;;15.10;99.90;;;;;;5081507;28;20417;-86
2023/03/09 08:47:33;;;;;;;4.27;3.87;;;15.20;99.90;;;;;;5058222;28;20988;-87
2023/03/09 08:49:59;;;;;;;122.43;60.50;;;15.20;99.90;;;;;;5066046;28;20421;-86
2023/03/09 08:52:25;;;;;;;6.23;4.80;;;15.20;99.90;;;;;;5091290;28;20451;-88
2023/03/09 08:54:51;;;;;;;22.33;15.00;;;15.30;99.90;;;;;;5090664;28;20176;-85
2023/03/09 08:57:18;;;;;;;6.57;4.47;;;15.40;99.90;;;;;;5090722;28;20601;-85
2023/03/09 08:59:46;;;;;;;5.27;4.40;;;15.30;99.90;;;;;;5089866;28;20412;-84
2023/03/09 09:02:14;;;;;;;7.47;5.33;;;15.30;99.90;;;;;;5089388;28;20452;-85
2023/03/09 09:04:44;;;;;;;5.20;4.70;;;15.30;99.90;;;;;;5081356;28;20975;-85
2023/03/09 09:07:11;;;;;;;7.60;4.83;;;15.30;99.90;;;;;;5095070;28;20507;-85
2023/03/09 09:09:38;;;;;;;8.70;4.33;;;15.40;99.90;;;;;;5079469;28;20969;-86
2023/03/09 09:12:03;;;;;;;11.40;4.47;;;15.40;99.90;;;;;;5074535;28;20488;-85
2023/03/09 09:14:29;;;;;;;4.27;3.87;;;15.40;99.90;;;;;;5070984;28;20488;-86
2023/03/09 09:16:55;;;;;;;7.63;4.23;;;15.50;99.90;;;;;;5085048;28;20258;-85
2023/03/09 09:19:22;;;;;;;6.33;5.70;;;15.50;99.90;;;;;;5085635;28;20192;-85
2023/03/09 09:21:48;;;;;;;4.70;4.30;;;15.50;99.90;;;;;;5078853;28;20444;-86
2023/03/09 09:24:14;;;;;;;4.47;4.10;;;15.60;99.90;;;;;;5081178;28;20418;-85
2023/03/09 09:26:41;;;;;;;5.10;4.13;;;15.60;99.90;;;;;;5083032;28;20472;-85
2023/03/09 09:29:07;;;;;;;6.30;4.53;;;15.60;99.90;;;;;;5078803;28;20860;-86
2023/03/09 09:31:33;;;;;;;6.60;4.30;;;15.70;99.90;;;;;;5085853;28;20804;-85
2023/03/09 09:33:59;;;;;;;7.30;4.30;;;15.70;99.90;;;;;;5080181;28;20456;-86
2023/03/09 09:36:25;;;;;;;5.90;4.00;;;15.80;99.90;;;;;;5080866;28;20489;-86
2023/03/09 09:38:52;;;;;;;5.93;4.50;;;15.80;99.90;;;;;;5081492;28;20497;-87
2023/03/09 09:41:36;;;;;;;7.20;4.00;;;15.90;99.90;;;;;;5073930;28;20498;-86
2023/03/09 09:44:04;;;;;;;7.00;4.20;;;15.90;99.90;;;;;;5080473;28;20465;-86
2023/03/09 09:46:31;;;;;;;5.03;3.50;;;16.00;99.90;;;;;;5077397;28;20719;-86
2023/03/09 09:48:59;;;;;;;5.47;4.30;;;16.10;99.90;;;;;;5088770;28;21029;-86
2023/03/09 09:51:46;;;;;;;5.50;4.90;;;16.20;99.90;;;;;;5088863;28;20429;-86
2023/03/09 09:55:11;;;;;;;5.13;3.87;;;16.20;99.90;;;;;;5085078;28;20474;-85
2023/03/09 09:57:40;;;;;;;7.30;4.20;;;16.10;99.90;;;;;;5061459;28;21042;-85
2023/03/09 10:00:17;;;;;;;6.67;5.37;;;16.10;99.90;;;;;;5075153;28;20601;-86
2023/03/09 10:03:11;;;;;;;23.87;16.20;;;16.00;99.90;;;;;;5084189;28;20458;-86
2023/03/09 10:05:56;;;;;;;16.00;13.93;;;16.00;99.90;;;;;;5085714;28;20471;-85
2023/03/09 10:08:43;;;;;;;5.50;4.93;;;15.90;99.90;;;;;;5091077;28;20595;-86
2023/03/09 10:11:36;;;;;;;7.60;4.70;;;15.90;99.90;;;;;;5091511;28;20436;-87
2023/03/09 10:14:38;;;;;;;5.17;4.67;;;15.80;99.90;;;;;;5078785;28;20481;-85
2023/03/09 10:17:08;;;;;;;6.47;5.83;;;15.80;99.90;;;;;;5078504;28;20449;-86
2023/03/09 10:19:42;;;;;;;8.40;6.43;;;15.80;99.90;;;;;;5084612;28;20575;-85
2023/03/09 10:22:14;;;;;;;7.07;6.37;;;15.80;99.90;;;;;;5079087;28;20468;-86
2023/03/09 10:24:43;;;;;;;9.40;7.10;;;15.80;99.90;;;;;;5065557;28;20462;-86
2023/03/09 10:27:42;;;;;;;11.30;9.07;;;15.70;99.90;;;;;;5061356;28;20476;-86
2023/03/09 10:30:35;;;;;;;9.03;6.20;;;15.70;99.90;;;;;;5067039;28;20654;-86
2023/03/09 10:33:19;;;;;;;6.80;6.10;;;15.70;99.90;;;;;;5060357;28;20511;-86
2023/03/09 10:35:58;;;;;;;8.57;7.33;;;15.60;99.90;;;;;;5058933;28;20456;-85
2023/03/09 10:38:24;;;;;;;6.53;5.70;;;15.80;99.90;;;;;;5058422;28;20993;-86
2023/03/09 10:40:53;;;;;;;7.17;5.17;;;15.90;99.90;;;;;;5064127;28;20424;-86
2023/03/09 10:43:29;;;;;;;8.47;5.20;;;15.90;99.90;;;;;;5058015;28;20523;-86
2023/03/09 10:46:21;;;;;;;6.60;5.37;;;15.80;99.90;;;;;;5048391;28;20493;-86
2023/03/09 10:48:48;;;;;;;5.20;4.80;;;15.70;99.90;;;;;;5053570;28;20854;-86
2023/03/09 10:51:25;;;;;;;6.73;4.97;;;15.70;99.90;;;;;;5058441;28;20860;-86
2023/03/09 10:53:52;;;;;;;6.70;4.93;;;15.70;99.90;;;;;;5065752;28;20517;-86
2023/03/09 10:56:29;;;;;;;7.23;5.13;;;15.60;99.90;;;;;;5059335;28;20433;-86
2023/03/09 10:59:06;;;;;;;5.60;4.50;;;15.70;99.90;;;;;;5062997;28;20457;-85
2023/03/09 11:01:35;;;;;;;6.03;4.17;;;15.80;99.90;;;;;;5061370;28;20478;-87
2023/03/09 11:04:01;;;;;;;5.60;5.10;;;15.70;99.90;;;;;;5052842;28;20852;-86
2023/03/09 11:06:37;;;;;;;9.03;5.27;;;15.90;99.90;;;;;;5070133;28;20517;-86
2023/03/09 11:09:17;;;;;;;8.57;5.73;;;15.90;99.90;;;;;;5068255;28;20950;-86
2023/03/09 11:11:47;;;;;;;8.30;5.30;;;15.80;99.90;;;;;;5057650;28;20434;-87
2023/03/09 11:14:31;;;;;;;8.27;5.50;;;15.80;99.90;;;;;;5061247;28;20825;-86
2023/03/09 11:17:00;;;;;;;6.17;5.17;;;15.80;99.90;;;;;;5067872;28;21241;-87
2023/03/09 11:19:27;;;;;;;8.33;5.20;;;15.90;99.90;;;;;;5060611;28;21023;-88
2023/03/09 11:21:55;;;;;;;6.30;5.23;;;15.80;99.90;;;;;;5056332;28;20982;-86
2023/03/09 11:24:26;;;;;;;8.93;6.23;;;15.80;99.90;;;;;;5066427;28;20458;-86
2023/03/09 11:27:06;;;;;;;6.20;5.10;;;15.80;99.90;;;;;;5058846;28;20477;-87
2023/03/09 11:29:47;;;;;;;7.20;5.97;;;15.80;99.90;;;;;;5057899;28;20836;-86
2023/03/09 11:32:13;;;;;;;7.50;5.80;;;15.80;99.90;;;;;;5046089;28;20544;-86
2023/03/09 11:34:40;;;;;;;6.03;5.30;;;15.90;99.90;;;;;;5057274;28;20434;-87
2023/03/09 11:37:15;;;;;;;6.30;5.30;;;15.80;99.90;;;;;;5079757;28;20233;-86
2023/03/09 11:39:59;;;;;;;7.93;5.53;;;15.70;99.90;;;;;;5057643;28;21058;-86
2023/03/09 11:43:03;;;;;;;6.20;4.70;;;15.80;99.90;;;;;;5055217;28;20798;-86
2023/03/09 11:45:32;;;;;;;9.50;5.90;;;15.80;99.90;;;;;;5068961;28;20441;-86
2023/03/09 11:48:22;;;;;;;18.63;7.30;;;16.00;99.90;;;;;;5067469;28;20530;-86
2023/03/09 11:51:05;;;;;;;8.23;7.13;;;16.00;99.90;;;;;;5061054;28;20557;-88
2023/03/09 11:53:44;;;;;;;7.73;5.87;;;16.20;99.90;;;;;;5062767;28;20544;-86
2023/03/09 11:56:32;;;;;;;7.13;5.73;;;16.30;99.90;;;;;;5069571;28;20447;-87
2023/03/09 11:59:11;;;;;;;7.30;4.20;;;16.40;99.90;;;;;;5064180;28;20544;-86
2023/03/09 12:01:44;;;;;;;5.20;4.30;;;16.40;99.90;;;;;;5054842;28;20431;-88
2023/03/09 12:04:14;;;;;;;5.70;3.70;;;16.40;99.90;;;;;;5061755;28;20455;-86
2023/03/09 12:06:53;;;;;;;11.67;7.83;;;16.50;99.90;;;;;;5061253;28;20676;-87
2023/03/09 12:09:45;;;;;;;8.70;7.80;;;16.50;99.90;;;;;;5060434;28;20427;-88
2023/03/09 12:12:47;;;;;;;12.90;11.70;;;16.60;99.90;;;;;;5056436;28;21910;-87
2023/03/09 12:15:30;;;;;;;3.80;3.50;;;16.70;99.90;;;;;;5059066;28;20775;-86
2023/03/09 12:17:59;;;;;;;4.10;3.47;;;16.90;99.90;;;;;;5064592;28;20459;-89
2023/03/09 12:20:33;;;;;;;5.33;3.47;;;16.90;99.90;;;;;;5060616;28;20436;-86
2023/03/09 12:22:59;;;;;;;4.63;3.10;;;17.10;99.90;;;;;;5064984;28;20472;-88
2023/03/09 12:25:26;;;;;;;6.03;3.50;;;17.30;99.90;;;;;;5062141;28;20461;-87
2023/03/09 12:28:00;;;;;;;5.90;4.57;;;17.50;99.90;;;;;;5064701;28;20462;-87
2023/03/09 12:30:31;;;;;;;6.43;5.43;;;17.60;99.90;;;;;;5064468;28;20420;-87
2023/03/09 12:33:00;;;;;;;7.33;4.17;;;17.70;99.90;;;;;;5067359;28;20453;-89
2023/03/09 12:35:40;;;;;;;4.03;3.73;;;17.90;99.90;;;;;;5070269;28;20803;-86
2023/03/09 12:38:21;;;;;;;4.03;3.53;;;18.10;99.90;;;;;;5065246;28;20872;-86
2023/03/09 12:40:49;;;;;;;5.90;3.60;;;18.10;99.90;;;;;;5059660;28;20957;-87
2023/03/09 12:43:25;;;;;;;4.80;3.50;;;18.10;99.90;;;;;;5062315;28;20968;-87
2023/03/09 12:45:51;;;;;;;5.20;4.70;;;18.20;99.90;;;;;;5062424;28;20537;-87
2023/03/09 12:48:33;;;;;;;4.53;2.40;;;18.20;99.90;;;;;;5058202;28;20642;-86
2023/03/09 12:51:01;;;;;;;3.77;2.30;;;18.30;99.90;;;;;;5059755;28;20225;-86
2023/03/09 12:53:31;;;;;;;3.53;2.27;;;18.30;99.90;;;;;;5069119;28;20432;-86
2023/03/09 12:56:16;;;;;;;5.93;3.23;;;18.30;99.90;;;;;;5068300;28;20401;-87
2023/03/09 12:58:44;;;;;;;2.83;2.17;;;18.40;99.90;;;;;;5066153;28;20444;-86